ENTO/TRF METAR and TAF weather

Enter ICAO airport designator
Station Type Date Time Source
ENTO METAR 2022/12/10 03:20 UTC NOAA

ENTO 100320Z AUTO 36008KT 9999 FEW018/// M07/M10 Q1013


Station Type Date Time Source
ENTO Decoded METAR 2022/12/10 03:20 UTC NOAA

Torp, Norway (ENTO) 59-12N 010-16E 88M
Dec 09, 2022 - 10:20 PM EST / 2022.12.10 0320 UTC
Wind: from the N (360 degrees) at 9 MPH (8 KT):0
Visibility: greater than 7 mile(s):0
Sky conditions: mostly clear
Temperature: 19 F (-7 C)
Windchill: 8 F (-13 C):1
Dew Point: 14 F (-10 C)
Relative Humidity: 79%
Pressure (altimeter): 29.91 in. Hg (1013 hPa)
ob: ENTO 100320Z AUTO 36008KT 9999 FEW018/// M07/M10 Q1013
cycle: 3

Station Type Date Time Source
ENTO TAF 2022/12/10 00:03 UTC NOAA

TAF TAF ENTO 092300Z 1000/1024 36010KT 9999 BKN020
TEMPO 1000/1002 BKN014

Example: see airport list